createdAt,value
2018-02-06T00:00:24.088Z,72.05
2018-02-06T00:01:24.044Z,71.95
2018-02-06T00:02:24.163Z,72.04
2018-02-06T00:03:24.066Z,71.99
2018-02-06T00:04:24.035Z,71.77
2018-02-06T00:05:24.042Z,71.91
2018-02-06T00:06:24.064Z,72.09
2018-02-06T00:07:24.106Z,72.03
2018-02-06T00:08:24.145Z,72.06
2018-02-06T00:09:24.043Z,72.1
2018-02-06T00:10:24.055Z,72.32
2018-02-06T00:11:24.083Z,72.06
2018-02-06T00:12:24.047Z,72.16
2018-02-06T00:13:24.065Z,72.06
2018-02-06T00:14:24.038Z,71.87
2018-02-06T00:15:24.045Z,71.98
2018-02-06T00:16:24.075Z,72.19
2018-02-06T00:17:24.180Z,72.12
2018-02-06T00:18:24.029Z,72.29
2018-02-06T00:19:24.035Z,72.17
2018-02-06T00:20:24.058Z,72.38
2018-02-06T00:21:24.041Z,72.37
2018-02-06T00:22:24.350Z,72.44
2018-02-06T00:23:24.060Z,72.53
2018-02-06T00:24:24.066Z,72.53
2018-02-06T00:25:24.058Z,72.26
2018-02-06T00:26:24.091Z,72.48
2018-02-06T00:27:24.071Z,72.56
2018-02-06T00:28:24.058Z,72.36
2018-02-06T00:29:24.052Z,72.19
2018-02-06T00:30:24.050Z,72.54
2018-02-06T00:31:24.040Z,72.68
2018-02-06T00:32:24.085Z,72.49
2018-02-06T00:33:24.101Z,72.61
2018-02-06T00:34:24.069Z,72.59
2018-02-06T00:35:24.063Z,72.68
2018-02-06T00:36:24.071Z,72.5
2018-02-06T00:39:24.123Z,72.7
2018-02-06T00:40:24.082Z,72.7
2018-02-06T00:41:24.136Z,72.81
2018-02-06T00:42:24.096Z,72.66
2018-02-06T00:43:24.050Z,72.72
2018-02-06T00:44:24.085Z,72.45
2018-02-06T00:45:24.047Z,72.34
2018-02-06T00:46:24.089Z,72.64
2018-02-06T00:47:24.106Z,72.39
2018-02-06T00:48:24.087Z,72.37
2018-02-06T00:49:24.085Z,72.39
2018-02-06T00:50:24.086Z,72.62
2018-02-06T00:51:24.141Z,72.31
2018-02-06T00:52:24.107Z,72.44
2018-02-06T00:55:24.070Z,72.79
2018-02-06T00:56:24.050Z,72.65
2018-02-06T00:57:24.074Z,72.68
2018-02-06T00:58:24.048Z,72.75
2018-02-06T00:59:24.133Z,72.77
2018-02-06T01:00:23.911Z,72.86
2018-02-06T01:01:23.930Z,72.88
2018-02-06T01:02:23.925Z,73.19
2018-02-06T01:03:23.939Z,72.87
2018-02-06T01:04:23.951Z,72.99
2018-02-06T01:05:23.946Z,72.9
2018-02-06T01:06:23.951Z,73.1
2018-02-06T01:07:23.927Z,72.93
2018-02-06T01:08:23.943Z,72.93
2018-02-06T01:09:24.275Z,72.88
2018-02-06T01:10:23.923Z,73.17
2018-02-06T01:11:23.920Z,72.93
2018-02-06T01:12:23.927Z,73.07
2018-02-06T01:13:23.933Z,73.17
2018-02-06T01:14:23.964Z,73.19
2018-02-06T01:15:24.057Z,73.34
2018-02-06T01:18:23.982Z,73.18
2018-02-06T01:19:23.976Z,72.94
2018-02-06T01:20:23.941Z,73
2018-02-06T01:21:23.921Z,73.06
2018-02-06T01:22:23.942Z,73.23
2018-02-06T01:23:23.937Z,73.07
2018-02-06T01:24:24.316Z,73.04
2018-02-06T01:25:23.926Z,73.08
2018-02-06T01:26:23.922Z,73.14
2018-02-06T01:27:23.937Z,73.19
2018-02-06T01:28:23.936Z,73.22
2018-02-06T01:29:23.976Z,72.96
2018-02-06T01:30:23.965Z,73.11
2018-02-06T01:31:23.919Z,73.06
2018-02-06T01:32:23.944Z,73.05
2018-02-06T01:33:23.923Z,73.17
2018-02-06T01:34:23.942Z,73.15
2018-02-06T01:35:24.030Z,73.59
2018-02-06T01:36:23.956Z,73.3
2018-02-06T01:37:23.976Z,72.93
2018-02-06T01:38:23.941Z,73.02
2018-02-06T01:39:23.918Z,73.03
2018-02-06T01:40:23.970Z,73.16
2018-02-06T01:41:23.937Z,73.16
2018-02-06T01:42:23.925Z,73.08
2018-02-06T01:43:23.932Z,73.22
2018-02-06T01:44:23.946Z,73.21
2018-02-06T01:45:23.983Z,72.96
2018-02-06T01:46:23.923Z,72.76
2018-02-06T01:47:23.919Z,72.65
2018-02-06T01:48:24.051Z,72.89
2018-02-06T01:49:23.930Z,73.11
2018-02-06T01:50:23.989Z,73.14
2018-02-06T01:51:23.950Z,73.05
2018-02-06T01:52:23.946Z,73.08
2018-02-06T01:53:23.938Z,73.29
2018-02-06T01:54:23.959Z,73.31
2018-02-06T01:55:24.294Z,73.19
2018-02-06T01:56:23.938Z,73.08
2018-02-06T01:57:23.933Z,73.37
2018-02-06T01:58:23.933Z,72.91
2018-02-06T01:59:23.926Z,73.09
2018-02-06T02:00:23.957Z,73.19
2018-02-06T02:01:23.972Z,73.27
2018-02-06T02:02:23.927Z,73.17
2018-02-06T02:03:23.933Z,73.52
2018-02-06T02:04:23.939Z,73.39
2018-02-06T02:05:23.932Z,73.49
2018-02-06T02:06:23.957Z,73.51
2018-02-06T02:07:23.933Z,73.21
2018-02-06T02:08:23.921Z,73.36
2018-02-06T02:09:23.901Z,73.46
2018-02-06T02:10:23.932Z,73.36
2018-02-06T02:11:23.904Z,73.33
2018-02-06T02:12:23.956Z,73.44
2018-02-06T02:13:23.930Z,73.15
2018-02-06T02:14:23.915Z,73.65
2018-02-06T02:15:23.922Z,73.51
2018-02-06T02:16:23.918Z,73.69
2018-02-06T02:17:23.955Z,73.75
2018-02-06T02:18:23.939Z,73.6
2018-02-06T02:19:23.940Z,73.38
2018-02-06T02:20:23.948Z,73.7
2018-02-06T02:21:23.916Z,73.44
2018-02-06T02:22:23.935Z,73.43
2018-02-06T02:23:23.916Z,73.53
2018-02-06T02:24:23.931Z,73.57
2018-02-06T02:25:23.913Z,73.64
2018-02-06T02:26:23.932Z,73.63
2018-02-06T02:27:23.933Z,73.66
2018-02-06T02:28:23.996Z,73.89
2018-02-06T02:29:23.902Z,73.41
2018-02-06T02:30:23.917Z,73.55
2018-02-06T02:31:23.916Z,73.52
2018-02-06T02:32:23.912Z,73.25
2018-02-06T02:33:24.910Z,73.41
2018-02-06T02:34:24.589Z,73.34
2018-02-06T02:35:24.610Z,73.44
2018-02-06T02:36:24.604Z,73.25
2018-02-06T02:37:24.609Z,73.3
2018-02-06T02:38:24.610Z,73.42
2018-02-06T02:39:24.669Z,73.28
2018-02-06T02:40:24.595Z,73.45
2018-02-06T02:41:24.606Z,73.52
2018-02-06T04:39:24.724Z,75.02
2018-02-06T04:40:24.713Z,74.87
2018-02-06T04:41:24.735Z,74.8
2018-02-06T04:42:24.743Z,74.91
2018-02-06T04:43:24.756Z,74.83
2018-02-06T04:44:24.944Z,74.91
2018-02-06T04:45:24.726Z,74.79
2018-02-06T04:46:24.731Z,75.21
2018-02-06T04:47:24.722Z,74.96
2018-02-06T04:48:24.712Z,74.95
2018-02-06T04:49:24.759Z,74.84
2018-02-06T04:50:24.725Z,74.81
2018-02-06T04:51:24.719Z,74.84
2018-02-06T04:52:24.706Z,75.01
2018-02-06T04:53:24.703Z,74.92
2018-02-06T04:54:24.705Z,75.07
2018-02-06T04:55:24.724Z,74.96
2018-02-06T04:56:24.722Z,74.85
2018-02-06T04:57:24.728Z,74.98
2018-02-06T04:58:24.714Z,74.89
2018-02-06T04:59:24.736Z,74.63
2018-02-06T05:02:24.749Z,74.96
2018-02-06T05:03:24.722Z,74.95
2018-02-06T05:04:24.821Z,75
2018-02-06T05:05:24.701Z,75.1
2018-02-06T05:06:24.710Z,74.93
2018-02-06T05:07:24.728Z,75.1
2018-02-06T05:08:24.591Z,75.02
2018-02-06T05:09:24.629Z,75.05
2018-02-06T05:10:24.587Z,74.93
2018-02-06T05:11:24.594Z,74.84
2018-02-06T05:12:24.614Z,74.9
2018-02-06T05:13:24.587Z,74.74
2018-02-06T05:14:24.662Z,74.84
2018-02-06T05:15:24.627Z,75.03
2018-02-06T05:16:24.616Z,75.01
2018-02-06T05:17:24.608Z,74.89
2018-02-06T05:18:24.613Z,74.58
2018-02-06T05:19:24.639Z,74.59
2018-02-06T05:20:24.617Z,74.34
2018-02-06T05:21:24.596Z,74.46
2018-02-06T05:22:24.605Z,74.31
2018-02-06T05:23:24.585Z,74.43
2018-02-06T05:24:24.631Z,74.46
2018-02-06T05:25:24.609Z,74.58
2018-02-06T05:26:24.617Z,74.67
2018-02-06T05:27:24.588Z,74.28
2018-02-06T05:28:24.632Z,74.58
2018-02-06T05:29:24.652Z,74.69
2018-02-06T05:30:24.601Z,74.62
2018-02-06T05:31:24.618Z,74.79
2018-02-06T05:32:24.613Z,74.78
2018-02-06T05:33:24.590Z,74.8
2018-02-06T05:34:24.635Z,74.74
2018-02-06T05:35:24.634Z,74.69
2018-02-06T05:36:24.580Z,74.81
2018-02-06T05:37:24.618Z,74.76
2018-02-06T05:38:24.603Z,74.77
2018-02-06T05:39:24.573Z,74.9
2018-02-06T05:40:24.610Z,75.05
2018-02-06T05:41:24.561Z,74.83
2018-02-06T05:42:24.528Z,74.73
2018-02-06T05:43:24.537Z,74.85
2018-02-06T05:44:24.557Z,74.95
2018-02-06T05:45:24.588Z,74.94
2018-02-06T05:46:24.537Z,74.76
2018-02-06T05:47:24.576Z,74.74
2018-02-06T05:48:24.561Z,74.86
2018-02-06T05:49:24.541Z,74.69
2018-02-06T05:50:24.561Z,74.95
2018-02-06T05:51:24.562Z,75.03
2018-02-06T05:52:24.544Z,75.14
2018-02-06T05:53:24.621Z,74.91
2018-02-06T05:54:24.570Z,75.32
2018-02-06T05:55:24.578Z,74.95
2018-02-06T05:56:24.582Z,75
2018-02-06T05:57:24.554Z,74.97
2018-02-06T05:58:24.566Z,75.11
2018-02-06T05:59:24.545Z,75.22
2018-02-06T06:00:24.555Z,75.34
2018-02-06T06:01:24.595Z,75.33
2018-02-06T06:02:24.572Z,75.37
2018-02-06T06:03:24.672Z,75.36
2018-02-06T06:04:24.566Z,75.33
2018-02-06T06:05:24.586Z,75.15
2018-02-06T06:06:24.805Z,75.28
2018-02-06T06:07:24.556Z,75.3
2018-02-06T06:08:24.605Z,75.45
2018-02-06T06:09:24.712Z,75.17
2018-02-06T06:10:24.716Z,75.25
2018-02-06T06:11:24.727Z,75.21
2018-02-06T06:12:24.732Z,75.22
2018-02-06T06:13:24.700Z,75.57
2018-02-06T06:14:24.708Z,75.4
2018-02-06T06:15:24.709Z,75.47
2018-02-06T06:16:24.707Z,75.38
2018-02-06T06:17:24.715Z,75.14
2018-02-06T06:18:24.683Z,75.05
2018-02-06T06:19:24.721Z,75.08
2018-02-06T06:20:24.729Z,75.21
2018-02-06T06:21:24.705Z,75.4
2018-02-06T06:22:24.688Z,75.19
2018-02-06T06:23:24.699Z,75.31
2018-02-06T06:24:24.704Z,75.48
2018-02-06T06:25:24.703Z,75.44
2018-02-06T06:26:24.732Z,75.42
2018-02-06T06:27:34.817Z,75.31
2018-02-06T06:28:24.715Z,75.51
2018-02-06T06:29:24.692Z,75.57
2018-02-06T06:30:24.688Z,75.55
2018-02-06T06:31:24.708Z,75.61
2018-02-06T06:32:24.692Z,75.6
2018-02-06T06:33:24.721Z,75.82
2018-02-06T06:34:24.718Z,75.65
2018-02-06T06:35:24.700Z,75.46
2018-02-06T06:36:24.683Z,75.67
2018-02-06T06:37:24.738Z,75.68
2018-02-06T06:38:24.774Z,75.74
2018-02-06T06:39:24.713Z,75.77
2018-02-06T06:40:24.651Z,75.8
2018-02-06T06:41:24.646Z,75.88
2018-02-06T06:42:24.714Z,75.92
2018-02-06T06:43:24.697Z,75.8
2018-02-06T06:44:24.713Z,76
2018-02-06T06:45:24.754Z,75.84
2018-02-06T06:46:24.653Z,76.18
2018-02-06T06:47:24.804Z,76.08
2018-02-06T06:48:24.783Z,76.07
2018-02-06T06:49:24.728Z,76.09
2018-02-06T06:50:24.677Z,75.75
2018-02-06T06:51:24.677Z,75.84
2018-02-06T06:52:24.788Z,75.6
2018-02-06T06:53:24.744Z,75.83
2018-02-06T06:54:24.673Z,75.75
2018-02-06T06:55:24.676Z,75.86
2018-02-06T06:56:24.675Z,75.85
2018-02-06T06:57:24.756Z,76.05
2018-02-06T06:58:24.754Z,75.7
2018-02-06T06:59:24.672Z,75.92
2018-02-06T07:00:24.674Z,75.98
2018-02-06T07:01:24.672Z,75.89
2018-02-06T07:02:24.717Z,75.82
2018-02-06T07:03:24.690Z,75.89
2018-02-06T07:04:24.663Z,75.98
2018-02-06T07:05:24.667Z,75.71
2018-02-06T07:06:24.660Z,75.73
2018-02-06T07:07:24.660Z,75.82
2018-02-06T07:08:24.716Z,75.87
2018-02-06T07:09:24.696Z,75.98
2018-02-06T07:10:24.686Z,76.11
2018-02-06T07:11:24.750Z,76.16
2018-02-06T07:12:24.774Z,76.05
2018-02-06T07:13:25.124Z,75.96
2018-02-06T07:14:24.766Z,75.75
2018-02-06T07:15:24.781Z,75.83
2018-02-06T07:16:24.810Z,75.83
2018-02-06T07:17:24.767Z,75.81
2018-02-06T07:18:24.785Z,75.67
2018-02-06T07:19:24.778Z,75.76
2018-02-06T07:20:24.744Z,75.73
2018-02-06T07:21:24.794Z,75.66
2018-02-06T07:22:24.758Z,75.49
2018-02-06T07:23:24.767Z,75.64
2018-02-06T07:24:24.786Z,75.64
2018-02-06T07:25:24.770Z,75.32
2018-02-06T07:26:24.777Z,75.46
2018-02-06T07:27:24.749Z,75.51
2018-02-06T07:28:24.759Z,75.65
2018-02-06T07:29:24.796Z,75.79
2018-02-06T07:30:24.805Z,75.91
2018-02-06T07:31:24.768Z,75.78
2018-02-06T07:32:24.784Z,75.78
2018-02-06T07:33:24.759Z,75.72
2018-02-06T07:34:24.815Z,75.71
2018-02-06T07:35:24.795Z,75.77
2018-02-06T07:36:24.757Z,75.61
2018-02-06T07:37:24.776Z,75.72
2018-02-06T07:38:24.794Z,75.55
2018-02-06T07:39:24.767Z,75.45
2018-02-06T07:40:24.781Z,75.46
2018-02-06T07:41:24.827Z,75.39
2018-02-06T07:42:24.829Z,75.41
2018-02-06T07:43:24.814Z,75.4
2018-02-06T07:44:24.867Z,75.48
2018-02-06T07:45:24.821Z,75.25
2018-02-06T07:46:24.836Z,75.35
2018-02-06T07:47:24.812Z,75.67
2018-02-06T07:48:24.803Z,75.45
2018-02-06T07:49:24.835Z,75.27
2018-02-06T07:50:24.830Z,75.34
2018-02-06T07:51:24.820Z,75.49
2018-02-06T07:52:24.913Z,75.14
2018-02-06T07:53:24.868Z,75.12
2018-02-06T07:54:24.803Z,75.2
2018-02-06T07:55:24.778Z,75.08
2018-02-06T07:56:24.790Z,75.24
2018-02-06T07:57:24.824Z,74.98
2018-02-06T07:58:24.846Z,75.25
2018-02-06T07:59:24.818Z,75.05
2018-02-06T08:00:24.807Z,75.05
2018-02-06T08:01:24.843Z,74.98
2018-02-06T08:02:24.899Z,75.06
2018-02-06T08:03:24.816Z,75.14
2018-02-06T08:04:24.831Z,75.01
2018-02-06T08:05:25.148Z,75.26
2018-02-06T08:06:24.793Z,74.98
2018-02-06T08:07:24.841Z,75.14
2018-02-06T08:08:24.812Z,75.19
2018-02-06T08:09:24.788Z,75.21
2018-02-06T08:10:24.840Z,75.27
2018-02-06T08:11:24.820Z,75.35
2018-02-06T08:12:24.737Z,74.89
2018-02-06T08:13:24.712Z,74.99
2018-02-06T08:14:24.715Z,74.99
2018-02-06T08:15:24.699Z,75.01
2018-02-06T08:16:24.728Z,74.87
2018-02-06T08:17:24.706Z,74.98
2018-02-06T08:18:24.726Z,74.94
2018-02-06T08:19:24.740Z,74.86
2018-02-06T08:20:24.708Z,75.03
2018-02-06T08:21:24.701Z,74.87
2018-02-06T08:22:24.690Z,74.83
2018-02-06T08:23:24.732Z,74.89
2018-02-06T08:24:24.705Z,74.95
2018-02-06T08:25:24.731Z,74.8
2018-02-06T08:26:24.718Z,74.87
2018-02-06T08:27:24.696Z,74.87
2018-02-06T08:28:24.740Z,74.5
2018-02-06T08:29:24.760Z,74.57
2018-02-06T08:30:24.745Z,74.46
2018-02-06T08:31:24.718Z,74.73
2018-02-06T08:32:24.728Z,74.79
2018-02-06T08:33:24.743Z,74.58
2018-02-06T08:34:24.731Z,74.46
2018-02-06T08:35:24.706Z,74.76
2018-02-06T08:36:24.710Z,74.58
2018-02-06T08:37:24.727Z,73.93
2018-02-06T08:38:24.748Z,74
2018-02-06T08:39:24.727Z,74.31
2018-02-06T08:40:24.697Z,74.16
2018-02-06T08:41:24.728Z,74.31
2018-02-06T08:42:24.716Z,74.22
2018-02-06T08:43:24.710Z,74.05
2018-02-06T08:44:24.708Z,73.9
2018-02-06T08:45:24.698Z,74.11
2018-02-06T08:46:24.662Z,74.21
2018-02-06T08:47:24.679Z,74.23
2018-02-06T08:48:24.727Z,73.93
2018-02-06T08:49:24.677Z,74.01
2018-02-06T08:50:24.682Z,74.11
2018-02-06T08:51:24.673Z,73.94
2018-02-06T08:52:24.682Z,73.79
2018-02-06T08:53:24.700Z,73.9
2018-02-06T08:54:24.662Z,74.02
2018-02-06T08:55:24.684Z,74
2018-02-06T08:56:24.681Z,74.1
2018-02-06T08:57:24.684Z,73.68
2018-02-06T08:58:24.714Z,73.73
2018-02-06T08:59:24.706Z,74.04
2018-02-06T09:00:24.668Z,74
2018-02-06T09:01:24.719Z,73.78
2018-02-06T09:02:24.682Z,73.63
2018-02-06T09:03:24.670Z,73.57
2018-02-06T09:04:24.685Z,73.83
2018-02-06T09:05:24.682Z,73.75
2018-02-06T09:06:24.707Z,73.62
2018-02-06T09:07:24.704Z,73.53
2018-02-06T09:08:24.685Z,73.56
2018-02-06T09:09:24.672Z,73.59
2018-02-06T09:10:24.689Z,73.75
2018-02-06T09:11:24.769Z,73.81
2018-02-06T09:12:24.690Z,73.53
2018-02-06T09:13:24.685Z,73.37
2018-02-06T09:14:24.551Z,73.35
2018-02-06T09:15:24.548Z,73.66
2018-02-06T09:16:24.609Z,73.38
2018-02-06T09:17:24.535Z,73.51
2018-02-06T09:18:24.534Z,73.4
2018-02-06T09:19:24.549Z,73.32
2018-02-06T09:20:24.570Z,73.23
2018-02-06T09:21:24.562Z,73.63
2018-02-06T09:22:24.549Z,73.39
2018-02-06T09:23:24.601Z,73.28
2018-02-06T09:24:24.536Z,73.55
2018-02-06T09:25:24.521Z,73.45
2018-02-06T09:26:24.532Z,73.68
2018-02-06T09:27:24.526Z,73.48
2018-02-06T09:28:24.566Z,73.53
2018-02-06T09:29:24.542Z,73.45
2018-02-06T09:30:24.545Z,73.49
2018-02-06T09:31:24.530Z,73.62
2018-02-06T09:32:24.548Z,73.62
2018-02-06T09:33:24.578Z,73.82
2018-02-06T09:34:24.538Z,73.71
2018-02-06T09:35:24.534Z,73.61
2018-02-06T09:36:24.548Z,73.5
2018-02-06T09:37:24.530Z,73.56
2018-02-06T09:38:24.555Z,73.24
2018-02-06T09:39:24.526Z,73.27
2018-02-06T09:40:24.518Z,73.53
2018-02-06T09:41:24.546Z,73.7
2018-02-06T09:42:24.554Z,73.4
2018-02-06T09:43:24.557Z,73.31
2018-02-06T09:44:24.551Z,73.09
2018-02-06T09:45:24.464Z,72.97
2018-02-06T09:46:24.419Z,73.14
2018-02-06T09:47:24.435Z,73.14
2018-02-06T09:48:24.451Z,73.42
2018-02-06T09:49:24.415Z,73.46
2018-02-06T09:50:24.438Z,73.12
2018-02-06T09:51:24.440Z,73.19
2018-02-06T09:52:24.459Z,73.37
2018-02-06T09:53:24.421Z,73.24
2018-02-06T09:54:24.448Z,73.1
2018-02-06T09:55:24.483Z,73.36
2018-02-06T09:56:24.451Z,73.05
2018-02-06T09:57:24.449Z,72.79
2018-02-06T09:58:24.416Z,72.82
2018-02-06T09:59:24.420Z,73.09
2018-02-06T10:00:24.422Z,72.69
2018-02-06T10:01:24.418Z,72.65
2018-02-06T10:02:24.423Z,72.49
2018-02-06T10:03:24.458Z,72.57
2018-02-06T10:04:24.430Z,72.55
2018-02-06T10:05:24.410Z,72.33
2018-02-06T10:06:24.453Z,72.7
2018-02-06T10:07:24.463Z,72.3
2018-02-06T10:08:24.448Z,72.05
2018-02-06T10:09:24.423Z,71.92
2018-02-06T10:10:24.429Z,71.91
2018-02-06T10:11:24.451Z,71.89
2018-02-06T10:12:24.473Z,71.94
2018-02-06T10:13:24.436Z,72.2
2018-02-06T10:14:24.418Z,71.74
2018-02-06T10:15:24.424Z,71.46
2018-02-06T10:16:24.467Z,71.24
2018-02-06T10:17:24.465Z,71.29
2018-02-06T10:18:24.480Z,71.18
2018-02-06T10:19:24.461Z,70.61
2018-02-06T10:20:24.448Z,70.98
2018-02-06T10:21:24.444Z,70.87
2018-02-06T10:22:24.461Z,71.06
2018-02-06T10:23:24.480Z,70.73
2018-02-06T10:24:24.439Z,70.64
2018-02-06T10:25:24.451Z,70.98
2018-02-06T10:26:24.457Z,70.71
2018-02-06T10:27:24.457Z,70.43
2018-02-06T10:28:24.470Z,70.72
2018-02-06T10:29:24.462Z,70.46
2018-02-06T10:30:24.470Z,70.21
2018-02-06T10:31:24.466Z,70.36
2018-02-06T10:32:24.553Z,70.12
2018-02-06T10:33:24.467Z,70.15
2018-02-06T10:34:24.455Z,70.33
2018-02-06T10:35:24.471Z,69.62
2018-02-06T10:36:24.454Z,69.18
2018-02-06T10:37:24.451Z,69.45
2018-02-06T10:38:24.440Z,69.66
2018-02-06T10:39:24.800Z,69.04
2018-02-06T10:40:24.483Z,69.35
2018-02-06T10:41:24.474Z,69.41
2018-02-06T10:42:24.467Z,69.57
2018-02-06T10:43:24.474Z,69.7
2018-02-06T10:44:24.486Z,69.58
2018-02-06T10:45:24.481Z,69.91
2018-02-06T10:46:24.463Z,69.97
2018-02-06T10:47:24.278Z,69.84
2018-02-06T10:48:24.294Z,69.84
2018-02-06T10:49:24.318Z,69.34
2018-02-06T10:50:24.296Z,69.63
2018-02-06T10:51:24.281Z,69.55
2018-02-06T10:52:24.319Z,69.27
2018-02-06T10:53:24.283Z,69.19
2018-02-06T10:54:24.301Z,69.44
2018-02-06T10:55:24.269Z,69.79
2018-02-06T10:56:24.267Z,69.24
2018-02-06T10:57:24.261Z,70
2018-02-06T10:58:24.279Z,69.57
2018-02-06T10:59:24.303Z,69.77
2018-02-06T11:00:24.282Z,69.46
2018-02-06T11:01:24.291Z,69.43
2018-02-06T11:02:24.287Z,69.38
2018-02-06T11:03:24.293Z,69.73
2018-02-06T11:04:24.311Z,69.42
2018-02-06T11:05:24.323Z,69.26
2018-02-06T11:06:24.293Z,69.24
2018-02-06T11:07:24.274Z,69.49
2018-02-06T11:08:24.273Z,69.49
2018-02-06T11:09:24.298Z,69.62
2018-02-06T11:10:24.290Z,69.89
2018-02-06T11:11:24.278Z,69.8
2018-02-06T11:12:24.333Z,69.83
2018-02-06T11:13:24.280Z,69.53
2018-02-06T11:14:24.288Z,69.32
2018-02-06T11:15:24.284Z,69.72
2018-02-06T11:16:24.302Z,69.63
2018-02-06T11:17:24.285Z,69.31
2018-02-06T11:18:24.232Z,69.12
2018-02-06T11:19:24.127Z,69.42
2018-02-06T11:20:24.105Z,69.39
2018-02-06T11:21:24.111Z,69.34
2018-02-06T11:22:24.105Z,69.83
2018-02-06T11:23:24.123Z,69.58
2018-02-06T11:24:24.179Z,69.61
2018-02-06T11:25:24.115Z,69.74
2018-02-06T11:26:24.095Z,69.7
2018-02-06T11:27:24.102Z,69.81
2018-02-06T11:28:24.118Z,69.91
2018-02-06T11:29:24.117Z,69.83
2018-02-06T11:30:24.151Z,70.21
2018-02-06T11:31:24.123Z,69.81
2018-02-06T11:32:24.144Z,69.87
2018-02-06T11:33:24.151Z,70.15
2018-02-06T11:34:24.107Z,70.04
2018-02-06T11:35:24.115Z,69.91
2018-02-06T11:36:24.205Z,70.15
2018-02-06T11:37:24.124Z,70.18
2018-02-06T11:38:24.104Z,70.4
2018-02-06T11:39:24.124Z,70.97
2018-02-06T11:40:24.108Z,70.28
2018-02-06T11:41:24.138Z,70.22
2018-02-06T11:42:24.141Z,70.43
2018-02-06T11:43:24.101Z,69.99
2018-02-06T11:44:24.179Z,70.62
2018-02-06T11:45:24.115Z,70.55
2018-02-06T11:46:24.113Z,70.52
2018-02-06T11:47:24.119Z,70.54
2018-02-06T11:48:24.148Z,70.72
2018-02-06T11:49:24.151Z,70.3
2018-02-06T11:50:24.200Z,70.61
2018-02-06T11:51:24.141Z,70.45
2018-02-06T11:52:24.190Z,70.55
2018-02-06T11:53:24.153Z,70.75
2018-02-06T11:54:24.138Z,70.38
2018-02-06T11:55:24.136Z,70.79
2018-02-06T11:56:24.135Z,70.73
2018-02-06T11:57:24.160Z,70.53
2018-02-06T11:58:24.169Z,70.46
2018-02-06T11:59:24.147Z,70.45
2018-02-06T12:00:24.172Z,70.62
2018-02-06T12:01:24.140Z,70.81
2018-02-06T12:02:24.136Z,70.3
2018-02-06T12:03:24.155Z,70.57
2018-02-06T12:04:24.191Z,70.67
2018-02-06T12:05:24.141Z,70.34
2018-02-06T12:06:24.151Z,70.4
2018-02-06T12:07:24.132Z,70.29
2018-02-06T12:08:24.158Z,70.63
2018-02-06T12:09:24.218Z,70.77
2018-02-06T12:10:24.173Z,70.62
2018-02-06T12:11:24.165Z,70.81
2018-02-06T12:12:24.147Z,70.96
2018-02-06T12:13:24.205Z,70.57
2018-02-06T12:14:24.195Z,70.65
2018-02-06T12:15:24.252Z,70.47
2018-02-06T12:16:24.136Z,70.78
2018-02-06T12:17:24.164Z,70.55
2018-02-06T12:18:24.128Z,70.48
2018-02-06T12:19:24.162Z,70.09
2018-02-06T12:20:23.997Z,70.26
2018-02-06T12:21:24.392Z,70.44
2018-02-06T12:22:23.999Z,70.48
2018-02-06T12:23:24.007Z,70.21
2018-02-06T12:24:24.027Z,70.29
2018-02-06T12:25:23.995Z,70.73
2018-02-06T12:26:24.042Z,70.67
2018-02-06T12:27:24.009Z,70.3
2018-02-06T12:28:24.034Z,70.17
2018-02-06T12:29:24.008Z,70.28
2018-02-06T12:30:24.012Z,70.32
2018-02-06T12:31:24.037Z,70.48
2018-02-06T12:32:24.023Z,70.95
2018-02-06T12:33:23.993Z,70.28
2018-02-06T12:34:24.003Z,70.58
2018-02-06T12:35:24.011Z,70.15
2018-02-06T12:36:24.061Z,69.86
2018-02-06T12:37:24.025Z,70.39
2018-02-06T12:38:24.010Z,69.95
2018-02-06T12:39:24.015Z,69.95
2018-02-06T12:40:24.005Z,70.22
2018-02-06T12:41:24.001Z,69.9
2018-02-06T12:42:24.036Z,69.98
2018-02-06T12:43:24.025Z,70.14
2018-02-06T12:44:24.093Z,69.86
2018-02-06T12:45:24.028Z,69.73
2018-02-06T12:46:24.023Z,69.68
2018-02-06T12:47:24.044Z,69.78
2018-02-06T12:48:24.018Z,69.48
2018-02-06T12:49:24.003Z,69.66
2018-02-06T12:50:24.018Z,69.74
2018-02-06T12:51:23.834Z,69.42
2018-02-06T12:52:23.879Z,69.39
2018-02-06T12:53:23.848Z,69.28
2018-02-06T12:54:23.853Z,69.48
2018-02-06T12:55:23.881Z,69.23
2018-02-06T12:56:23.853Z,68.98
2018-02-06T12:57:24.080Z,69.42
2018-02-06T12:58:23.839Z,69.1
2018-02-06T12:59:23.875Z,69.21
2018-02-06T13:00:23.872Z,68.85
2018-02-06T13:01:23.848Z,68.85
2018-02-06T13:02:23.880Z,68.55
2018-02-06T13:03:23.877Z,68.81
2018-02-06T13:04:23.915Z,68.69
2018-02-06T13:05:23.874Z,69.1
2018-02-06T13:06:23.868Z,68.79
2018-02-06T13:07:23.865Z,68.31
2018-02-06T13:08:23.861Z,68.17
2018-02-06T13:09:23.862Z,67.94
2018-02-06T13:10:23.835Z,67.79
2018-02-06T13:11:23.878Z,67.75
2018-02-06T13:12:23.875Z,68.09
2018-02-06T13:13:23.916Z,68.04
2018-02-06T13:14:23.865Z,68.68
2018-02-06T13:15:23.870Z,68.23
2018-02-06T13:16:23.856Z,67.75
2018-02-06T13:17:23.883Z,67.88
2018-02-06T13:18:23.879Z,67.92
2018-02-06T13:19:23.891Z,67.97
2018-02-06T13:20:23.842Z,67.78
2018-02-06T13:21:23.848Z,68.16
2018-02-06T13:22:24.648Z,67.71
2018-02-06T13:23:24.629Z,67.67
2018-02-06T13:24:24.618Z,67.57
2018-02-06T13:25:24.627Z,67.66
2018-02-06T13:26:24.622Z,67.88
2018-02-06T13:27:24.633Z,67.5
2018-02-06T13:28:24.648Z,67.63
2018-02-06T13:29:24.621Z,67.37
2018-02-06T13:30:24.678Z,67.89
2018-02-06T13:31:24.620Z,67.76
2018-02-06T13:32:24.611Z,68.19
2018-02-06T13:33:24.628Z,67.53
2018-02-06T13:34:24.631Z,67.66
2018-02-06T13:35:24.621Z,67.52
2018-02-06T13:36:24.626Z,66.88
2018-02-06T13:37:24.665Z,67.37
2018-02-06T13:38:24.653Z,67.33
2018-02-06T13:39:24.637Z,66.68
2018-02-06T13:40:24.622Z,67.29
2018-02-06T13:41:24.623Z,66.81
2018-02-06T13:42:24.607Z,67.01
2018-02-06T13:43:24.619Z,67.55
2018-02-06T13:44:24.831Z,68.04
2018-02-06T13:45:24.616Z,67.26
2018-02-06T13:46:24.629Z,68.09
2018-02-06T13:47:24.612Z,67.47
2018-02-06T13:48:24.625Z,67.53
2018-02-06T13:49:24.663Z,67.72
2018-02-06T13:50:24.614Z,67.44
2018-02-06T13:51:24.705Z,67.03
2018-02-06T13:52:24.580Z,67.44
2018-02-06T13:53:24.587Z,67.45
2018-02-06T13:54:24.882Z,67.08
2018-02-06T13:55:24.593Z,67.26
2018-02-06T13:56:24.576Z,67.33
2018-02-06T13:57:24.611Z,67.42
2018-02-06T13:58:24.551Z,68.08
2018-02-06T13:59:24.607Z,67.7
2018-02-06T14:00:24.587Z,67.7
2018-02-06T14:01:24.593Z,67.16
2018-02-06T14:02:24.653Z,67.19
2018-02-06T14:03:24.611Z,67.23
2018-02-06T14:04:24.621Z,67.66
2018-02-06T14:05:24.619Z,67.73
2018-02-06T14:06:24.592Z,67.4
2018-02-06T14:07:24.583Z,66.89
2018-02-06T14:08:24.591Z,66.85
2018-02-06T14:09:24.576Z,66.33
2018-02-06T14:10:24.606Z,67.28
2018-02-06T14:11:24.613Z,66.93
2018-02-06T14:12:24.587Z,66.6
2018-02-06T14:13:24.624Z,66.46
2018-02-06T14:14:24.590Z,66.47
2018-02-06T14:15:24.621Z,66.53
2018-02-06T14:16:24.572Z,66.59
2018-02-06T14:17:24.579Z,66.59
2018-02-06T14:18:24.613Z,66.52
2018-02-06T14:19:24.570Z,67
2018-02-06T14:20:24.625Z,66.74
2018-02-06T14:21:24.619Z,66.61
2018-02-06T14:22:24.602Z,66.51
2018-02-06T14:23:24.550Z,66.44
2018-02-06T14:24:24.538Z,66.41
2018-02-06T14:25:24.517Z,66.31
2018-02-06T14:26:24.542Z,66.53
2018-02-06T14:27:24.824Z,66.79
2018-02-06T14:28:24.535Z,66.33
2018-02-06T14:29:24.522Z,66.45
2018-02-06T14:30:24.572Z,67.02
2018-02-06T14:31:24.492Z,66.43
2018-02-06T14:32:24.557Z,66.91
2018-02-06T14:33:24.546Z,66.79
2018-02-06T14:34:24.547Z,67.03
2018-02-06T14:35:24.534Z,66.88
2018-02-06T14:36:24.557Z,67.33
2018-02-06T14:37:24.623Z,67.22
2018-02-06T14:38:24.542Z,67.36
2018-02-06T14:39:24.505Z,67.18
2018-02-06T14:40:24.524Z,67.39
2018-02-06T14:41:24.508Z,67.57
2018-02-06T14:42:24.558Z,67.33
2018-02-06T14:43:24.536Z,67.38
2018-02-06T14:44:24.508Z,67.43
2018-02-06T14:45:24.532Z,67.72
2018-02-06T14:46:24.502Z,68.07
2018-02-06T14:47:24.514Z,67.73
2018-02-06T14:48:24.557Z,67.58
2018-02-06T14:49:24.517Z,68.37
2018-02-06T14:50:24.529Z,67.97
2018-02-06T14:51:24.530Z,68.04
2018-02-06T14:52:24.531Z,67.37
2018-02-06T14:53:24.583Z,67.5
2018-02-06T14:54:24.581Z,67.75
2018-02-06T14:55:24.566Z,67.5
2018-02-06T14:56:24.606Z,67.66
2018-02-06T14:57:24.542Z,67.52
2018-02-06T14:58:24.958Z,67.82
2018-02-06T14:59:24.599Z,67.77
2018-02-06T15:00:24.540Z,68.11